Silver Bay, Minnesota
Current Conditions -  °F | °C
As of 6:14 AM on Thursday 18 Dec 2014 (Local Time) from KBFW Reporting Station
Overcast Overcast  
Wind Chill: 23°   Ceiling: 1600
Heat Index: 23°   Visibility: 10mi
Dew Point: 19°   Wind: 3mph
Humidity: 86%   Direction: 360°N
Pressure: 30.28"   Gusts: NA
Location:  47.29°N, 91.26°W
Report Text: KBFW 181214Z AUTO 36003KT 10SM OVC016 M05/M07 A3028 RMK AO2
Loading
Personal Weather Stations






























Interactive Weather Map New forecast layout! Learn more

10-Day Weather Forecast

Advertisements
Track Severe Weather on mobile